Time;durP1;ratioP1;P1;durP2;ratioP2;P2;SDS_P1;SDS_P2;PMS_P1;PMS_P2;Temp;Humidity;BMP_temperature;BMP_pressure;BME280_temperature;BME280_humidity;BME280_pressure;Samples;Min_cycle;Max_cycle;Signal;HPM_P1;HPM_P2
2023/05/11 00:02:00;;;;;;;13.05;8.43;;;;;;;17.49;94.57;98767.56;4866606;29;20048;-81
2023/05/11 00:04:44;;;;;;;7.68;6.05;;;;;;;17.60;94.62;98787.06;4872765;29;20081;-81
2023/05/11 00:07:28;;;;;;;9.05;6.25;;;;;;;17.59;94.24;98774.84;4869096;29;20044;-81
2023/05/11 00:10:12;;;;;;;;;;;;;;;17.61;94.16;98793.97;4870412;29;20055;-81
2023/05/11 00:12:56;;;;;;;6.60;5.18;;;;;;;17.59;93.83;98780.16;4870265;29;19922;-81
2023/05/11 00:15:40;;;;;;;;;;;;;;;17.74;93.46;98785.66;4869077;29;20056;-81
2023/05/11 00:18:24;;;;;;;6.45;4.78;;;;;;;17.62;93.47;98771.69;4867845;29;19966;-81
2023/05/11 00:21:09;;;;;;;8.48;4.55;;;;;;;17.55;94.08;98780.66;4866834;29;20117;-81
2023/05/11 00:23:53;;;;;;;7.80;4.90;;;;;;;17.54;94.24;98779.03;4866812;29;20048;-80
2023/05/11 00:26:37;;;;;;;8.20;5.00;;;;;;;17.40;94.35;98777.78;4866041;29;20059;-81
2023/05/11 00:29:21;;;;;;;8.48;5.53;;;;;;;17.50;94.33;98785.91;4865784;29;20506;-81
2023/05/11 00:32:05;;;;;;;6.78;5.00;;;;;;;17.37;94.71;98770.34;4864686;29;20104;-81
2023/05/11 00:34:49;;;;;;;5.43;4.57;;;;;;;17.36;94.90;98771.38;4865477;29;20104;-81
2023/05/11 00:37:33;;;;;;;7.30;4.75;;;;;;;17.49;94.62;98784.28;4867158;29;20128;-81
2023/05/11 00:40:17;;;;;;;6.78;4.70;;;;;;;17.48;94.63;98779.22;4868641;29;20048;-81
2023/05/11 00:43:01;;;;;;;13.13;5.53;;;;;;;17.50;94.79;98783.25;4869577;29;20396;-81
2023/05/11 00:45:47;;;;;;;11.43;5.22;;;;;;;17.50;94.25;98771.81;4867784;29;20047;-80
2023/05/11 00:48:31;;;;;;;8.93;5.63;;;;;;;17.55;94.47;98774.53;4867668;29;20387;-81
2023/05/11 00:51:15;;;;;;;8.52;5.05;;;;;;;17.24;94.51;98779.44;4867302;29;20399;-81
2023/05/11 00:54:01;;;;;;;15.02;6.00;;;;;;;17.27;94.73;98774.44;4870217;29;20109;-81
2023/05/11 00:56:47;;;;;;;7.55;5.32;;;;;;;17.26;95.22;98778.16;4869421;29;20048;-81
2023/05/11 00:59:31;;;;;;;8.00;5.18;;;;;;;17.30;94.86;98782.97;4869904;29;20073;-80
2023/05/11 01:02:16;;;;;;;9.00;5.25;;;;;;;17.35;95.07;98785.69;4862102;29;20060;-80
2023/05/11 01:05:00;;;;;;;10.15;5.40;;;;;;;17.34;94.79;98790.19;4865670;29;20045;-82
2023/05/11 01:07:52;;;;;;;7.95;4.78;;;;;;;17.24;95.40;98774.94;4867776;29;20044;-81
2023/05/11 01:11:02;;;;;;;8.50;5.20;;;;;;;17.31;95.38;98785.38;4875192;29;20044;-82
2023/05/11 01:13:52;;;;;;;9.88;5.35;;;;;;;17.31;95.28;98776.63;4863400;29;20552;-81
2023/05/11 01:16:39;;;;;;;9.15;5.97;;;;;;;17.44;94.76;98786.06;4868019;29;20472;-81
2023/05/11 01:19:48;;;;;;;13.30;6.05;;;;;;;17.06;95.85;98788.47;4868533;29;20044;-80
2023/05/11 01:22:32;;;;;;;9.50;6.20;;;;;;;17.30;95.65;98783.78;4862319;29;20076;-82
2023/05/11 01:25:28;;;;;;;11.63;6.05;;;;;;;17.21;95.71;98788.69;4868055;29;20075;-82
2023/05/11 01:28:13;;;;;;;10.07;5.25;;;;;;;17.40;95.33;98786.56;4869679;29;20065;-82
2023/05/11 01:31:05;;;;;;;12.20;5.75;;;;;;;17.35;95.67;98791.00;4863929;29;20094;-82
2023/05/11 01:34:18;;;;;;;8.20;5.20;;;;;;;17.12;96.27;98785.66;4868875;29;20040;-83
2023/05/11 01:37:12;;;;;;;9.82;4.95;;;;;;;17.34;95.81;98792.06;4867245;29;20097;-81
2023/05/11 01:40:00;;;;;;;10.52;4.95;;;;;;;17.50;95.20;98796.50;4865425;29;20052;-81
2023/05/11 01:42:49;;;;;;;7.25;4.88;;;;;;;17.30;95.36;98786.41;4864306;29;20106;-82
2023/05/11 01:45:38;;;;;;;11.38;5.28;;;;;;;17.27;95.73;98785.06;4865059;29;20044;-81
2023/05/11 01:48:24;;;;;;;10.57;5.13;;;;;;;17.26;95.74;98798.56;4869730;29;20105;-81
2023/05/11 01:51:10;;;;;;;5.40;4.47;;;;;;;17.22;96.14;98797.47;4868780;29;20052;-82
2023/05/11 01:53:55;;;;;;;6.68;4.28;;;;;;;17.26;96.53;98803.88;4867250;29;20056;-83
2023/05/11 01:56:41;;;;;;;8.07;4.43;;;;;;;17.20;96.54;98799.56;4866928;29;20044;-82
2023/05/11 01:59:27;;;;;;;10.07;4.75;;;;;;;17.21;96.29;98806.47;4864921;29;20150;-81
2023/05/11 02:02:12;;;;;;;12.57;4.78;;;;;;;17.16;96.88;98816.97;4867934;29;20040;-81
2023/05/11 02:04:58;;;;;;;8.65;4.20;;;;;;;17.21;96.68;98806.47;4873551;29;20052;-82
2023/05/11 02:07:44;;;;;;;6.88;3.78;;;;;;;17.38;96.02;98817.03;4872020;29;20101;-82
2023/05/11 02:10:31;;;;;;;5.38;4.00;;;;;;;17.17;96.43;98816.75;4870336;29;20071;-82
2023/05/11 02:13:16;;;;;;;7.22;3.97;;;;;;;17.23;96.72;98818.41;4870445;29;20044;-81
2023/05/11 02:16:01;;;;;;;11.15;4.45;;;;;;;17.24;96.80;98812.06;4869731;29;20044;-81
2023/05/11 02:18:47;;;;;;;6.10;4.28;;;;;;;17.36;96.43;98821.78;4870042;29;20048;-82
2023/05/11 02:21:32;;;;;;;8.27;4.70;;;;;;;17.37;96.37;98820.75;4869735;29;20513;-81
2023/05/11 02:24:18;;;;;;;12.00;6.68;;;;;;;17.30;97.02;98818.25;4873801;29;20108;-81
2023/05/11 02:27:02;;;;;;;8.88;5.60;;;;;;;17.31;96.73;98813.75;4872590;29;20526;-81
2023/05/11 02:29:47;;;;;;;9.02;6.43;;;;;;;17.41;96.60;98827.16;4866752;29;20408;-81
2023/05/11 02:32:36;;;;;;;8.25;5.90;;;;;;;17.32;96.43;98824.13;4872010;29;20056;-81
2023/05/11 02:35:24;;;;;;;8.15;6.32;;;;;;;17.35;96.42;98823.63;4869026;29;20108;-81
2023/05/11 02:38:09;;;;;;;19.30;6.82;;;;;;;17.40;96.52;98826.38;4868174;29;20181;-81
2023/05/11 02:40:57;;;;;;;11.45;7.40;;;;;;;17.31;96.63;98827.03;4869200;29;20100;-82
2023/05/11 02:43:48;;;;;;;12.15;7.30;;;;;;;17.30;96.83;98831.50;4871173;29;20098;-81
2023/05/11 02:46:35;;;;;;;8.02;6.63;;;;;;;17.41;96.83;98837.75;4869286;29;20118;-82
2023/05/11 02:49:24;;;;;;;9.48;7.00;;;;;;;15.34;100.00;98836.72;4869581;29;20048;-82
2023/05/11 02:52:10;;;;;;;8.38;5.40;;;;;;;13.64;100.00;98849.78;4872001;29;20043;-81
2023/05/11 02:54:58;;;;;;;6.60;5.25;;;;;;;13.34;100.00;98858.34;4873107;29;20048;-82
2023/05/11 02:57:44;;;;;;;6.65;5.20;;;;;;;13.16;100.00;98848.59;4867972;29;20404;-82
2023/05/11 03:00:28;;;;;;;10.48;5.30;;;;;;;13.08;100.00;98845.22;4866565;29;20045;-81
2023/05/11 03:03:12;;;;;;;9.80;5.93;;;;;;;13.68;100.00;98857.06;4866271;29;20108;-81
2023/05/11 03:05:56;;;;;;;10.05;5.60;;;;;;;13.76;100.00;98847.22;4872797;29;20407;-80
2023/05/11 03:08:41;;;;;;;7.28;6.30;;;;;;;13.03;100.00;98850.31;4867854;29;20079;-80
2023/05/11 03:11:26;;;;;;;6.95;6.05;;;;;;;13.12;100.00;98853.47;4867957;29;20048;-79
2023/05/11 03:14:10;;;;;;;9.25;5.13;;;;;;;12.98;100.00;98848.34;4865471;29;20110;-80
2023/05/11 03:16:55;;;;;;;;;;;;;;;13.57;100.00;98850.69;4871723;29;20084;-80
2023/05/11 03:19:41;;;;;;;9.35;5.28;;;;;;;13.71;100.00;98850.53;4862879;29;20002;-80
2023/05/11 03:22:26;;;;;;;14.48;5.65;;;;;;;13.75;100.00;98854.31;4873781;29;20048;-80
2023/05/11 03:25:11;;;;;;;13.30;5.53;;;;;;;13.75;100.00;98859.59;4868667;29;20051;-80
2023/05/11 03:27:57;;;;;;;8.07;5.20;;;;;;;13.71;100.00;98850.53;4868298;29;20052;-79
2023/05/11 03:30:45;;;;;;;8.82;5.15;;;;;;;13.68;100.00;98854.41;4865575;29;20507;-79
2023/05/11 03:33:29;;;;;;;6.80;5.28;;;;;;;13.64;100.00;98855.06;4866832;29;20044;-79
2023/05/11 03:36:14;;;;;;;8.02;5.32;;;;;;;13.72;100.00;98852.13;4869768;29;20132;-80
2023/05/11 03:39:00;;;;;;;10.98;6.63;;;;;;;13.70;100.00;98856.81;4872635;29;20173;-80
2023/05/11 03:41:49;;;;;;;7.00;6.03;;;;;;;13.63;100.00;98837.63;4866948;29;20104;-80
2023/05/11 03:44:34;;;;;;;10.45;6.97;;;;;;;13.63;100.00;98848.19;4871303;29;20493;-80
2023/05/11 03:47:20;;;;;;;11.25;7.10;;;;;;;13.05;100.00;98852.75;4863103;29;20400;-82
2023/05/11 03:50:07;;;;;;;12.10;7.53;;;;;;;12.96;100.00;98860.88;4867497;29;20047;-81
2023/05/11 03:52:52;;;;;;;9.75;7.28;;;;;;;12.93;100.00;98857.91;4872738;29;20048;-81
2023/05/11 03:55:36;;;;;;;9.48;7.22;;;;;;;12.95;100.00;98859.28;4866674;29;20116;-82
2023/05/11 03:58:21;;;;;;;9.60;6.60;;;;;;;12.95;100.00;98850.59;4868794;29;20157;-82
2023/05/11 04:01:07;;;;;;;9.98;7.47;;;;;;;12.90;100.00;98845.94;4868740;29;20056;-82
2023/05/11 04:03:52;;;;;;;10.80;7.68;;;;;;;12.94;100.00;98864.78;4868605;29;20052;-81
2023/05/11 04:06:36;;;;;;;10.50;7.50;;;;;;;13.02;100.00;98858.44;4870478;29;20104;-80
2023/05/11 04:09:20;;;;;;;15.75;7.15;;;;;;;13.03;100.00;98865.31;4870870;29;20124;-81
2023/05/11 04:12:04;;;;;;;10.25;6.05;;;;;;;13.11;100.00;98867.69;4865472;29;20060;-81
2023/05/11 04:14:48;;;;;;;10.07;6.72;;;;;;;13.12;100.00;98878.00;4863980;29;20510;-81
2023/05/11 04:17:32;;;;;;;11.20;6.43;;;;;;;13.08;100.00;98862.84;4862876;29;20049;-81
2023/05/11 04:20:16;;;;;;;9.95;6.55;;;;;;;13.17;100.00;98876.56;4866907;29;20148;-80
2023/05/11 04:23:00;;;;;;;6.90;6.15;;;;;;;13.05;100.00;98869.34;4868355;29;20088;-81
2023/05/11 04:25:44;;;;;;;13.93;7.05;;;;;;;12.97;100.00;98862.53;4871645;29;20148;-81
2023/05/11 04:28:28;;;;;;;9.82;6.70;;;;;;;13.11;100.00;98880.84;4865051;29;20101;-82
2023/05/11 04:31:12;;;;;;;9.60;6.82;;;;;;;13.10;100.00;98881.88;4870784;29;20154;-81
2023/05/11 04:33:56;;;;;;;12.93;7.75;;;;;;;13.13;100.00;98878.81;4868077;29;20117;-82
2023/05/11 04:36:40;;;;;;;12.05;8.07;;;;;;;13.11;100.00;98883.50;4862002;29;20112;-82
2023/05/11 04:39:25;;;;;;;14.32;8.13;;;;;;;13.17;100.00;98892.38;4870550;29;20044;-82
2023/05/11 04:42:09;;;;;;;14.25;8.23;;;;;;;13.16;100.00;98878.38;4866478;29;20073;-82
2023/05/11 04:44:53;;;;;;;13.02;8.90;;;;;;;13.34;100.00;98884.72;4865723;29;20043;-81
2023/05/11 04:47:37;;;;;;;12.85;7.63;;;;;;;13.41;100.00;98888.13;4866106;29;20398;-83
2023/05/11 04:50:21;;;;;;;11.80;7.60;;;;;;;13.49;100.00;98889.72;4866784;29;20052;-82
2023/05/11 04:53:05;;;;;;;11.27;7.70;;;;;;;13.45;100.00;98883.22;4868166;29;20095;-81
2023/05/11 04:55:49;;;;;;;12.55;7.70;;;;;;;13.47;100.00;98895.19;4867206;29;20055;-81
2023/05/11 04:58:33;;;;;;;10.13;7.80;;;;;;;13.44;100.00;98893.00;4867139;29;20114;-82
2023/05/11 05:01:17;;;;;;;9.98;7.32;;;;;;;13.46;100.00;98874.28;4866546;29;20169;-81
2023/05/11 05:04:01;;;;;;;12.20;7.20;;;;;;;13.52;100.00;98890.06;4873243;29;20063;-82
2023/05/11 05:06:45;;;;;;;11.10;8.45;;;;;;;13.56;100.00;98898.34;4867041;29;20117;-81
2023/05/11 05:09:29;;;;;;;12.32;8.85;;;;;;;13.60;100.00;98899.53;4862819;29;20766;-82
2023/05/11 05:12:13;;;;;;;11.07;8.15;;;;;;;13.65;100.00;98898.88;4869002;29;20105;-81
2023/05/11 05:14:57;;;;;;;13.88;9.20;;;;;;;13.74;100.00;98902.84;4867687;29;20109;-81
2023/05/11 05:17:40;;;;;;;13.77;9.38;;;;;;;13.76;100.00;98900.81;4865089;29;20173;-81
2023/05/11 05:20:26;;;;;;;12.60;9.15;;;;;;;13.79;100.00;98896.91;4870830;29;20049;-81
2023/05/11 05:23:10;;;;;;;13.05;10.05;;;;;;;13.85;100.00;98904.75;4869486;29;20048;-82
2023/05/11 05:25:54;;;;;;;10.93;9.55;;;;;;;13.95;100.00;98906.06;4863161;29;20146;-82
2023/05/11 05:28:38;;;;;;;16.90;10.50;;;;;;;14.00;100.00;98911.50;4867404;29;20128;-81
2023/05/11 05:31:23;;;;;;;12.30;9.05;;;;;;;14.06;100.00;98910.63;4871121;29;20136;-82
2023/05/11 05:34:07;;;;;;;16.88;9.40;;;;;;;14.12;100.00;98914.22;4862831;29;20453;-82
2023/05/11 05:36:51;;;;;;;12.77;9.43;;;;;;;14.09;100.00;98914.66;4869633;29;20463;-83
2023/05/11 05:39:35;;;;;;;15.65;10.13;;;;;;;14.08;100.00;98908.56;4864865;29;20097;-82
2023/05/11 05:42:21;;;;;;;13.73;9.80;;;;;;;14.20;100.00;98921.03;4878017;29;20617;-81
2023/05/11 05:45:06;;;;;;;15.32;9.82;;;;;;;14.18;100.00;98923.09;4871164;29;20045;-81
2023/05/11 05:47:50;;;;;;;12.93;10.32;;;;;;;14.22;100.00;98921.63;4867959;29;20515;-83
2023/05/11 05:50:34;;;;;;;15.25;10.45;;;;;;;14.27;100.00;98938.41;4870073;29;20045;-85
2023/05/11 05:53:18;;;;;;;13.52;9.75;;;;;;;14.21;100.00;98927.94;4872555;29;20122;-84
2023/05/11 05:56:02;;;;;;;13.77;10.43;;;;;;;14.33;100.00;98935.91;4871382;29;20044;-86
2023/05/11 05:58:46;;;;;;;13.90;11.10;;;;;;;14.70;100.00;98930.56;4867084;29;20407;-84
2023/05/11 06:01:30;;;;;;;16.25;10.93;;;;;;;14.79;100.00;98933.72;4870092;29;20060;-84
2023/05/11 06:04:15;;;;;;;16.42;11.40;;;;;;;14.92;100.00;98944.09;4871143;29;20057;-84
2023/05/11 06:06:59;;;;;;;14.40;11.85;;;;;;;14.96;100.00;98945.28;4874623;29;20064;-85
2023/05/11 06:09:43;;;;;;;15.23;11.27;;;;;;;15.05;100.00;98952.88;4878537;29;20095;-85
2023/05/11 06:12:27;;;;;;;14.25;11.98;;;;;;;15.10;100.00;98953.00;4870426;29;20517;-85
2023/05/11 06:15:12;;;;;;;20.33;12.45;;;;;;;15.14;100.00;98941.75;4887247;29;20055;-84
2023/05/11 06:17:56;;;;;;;17.23;11.57;;;;;;;15.32;100.00;98942.69;4876828;29;20093;-84
2023/05/11 06:20:41;;;;;;;16.35;12.48;;;;;;;14.85;100.00;98932.81;4875612;29;20052;-84
2023/05/11 06:23:24;;;;;;;15.73;11.85;;;;;;;15.50;100.00;98955.00;4872841;29;20141;-86
2023/05/11 06:26:09;;;;;;;13.65;11.23;;;;;;;15.73;100.00;98961.38;4870320;29;20056;-84
2023/05/11 06:28:53;;;;;;;14.73;11.23;;;;;;;15.80;100.00;98948.81;4877925;29;20055;-86
2023/05/11 06:31:37;;;;;;;14.32;10.70;;;;;;;16.01;100.00;98965.19;4873228;29;21636;-84
2023/05/11 06:34:21;;;;;;;19.55;13.40;;;;;;;16.17;100.00;98958.34;4873446;29;20052;-84
2023/05/11 06:37:06;;;;;;;18.08;12.75;;;;;;;16.44;100.00;98962.31;4873324;29;20060;-83
2023/05/11 06:39:50;;;;;;;19.10;14.18;;;;;;;16.48;100.00;98968.75;4866308;29;20180;-84
2023/05/11 06:42:34;;;;;;;18.23;13.00;;;;;;;16.72;100.00;98964.19;4868861;29;21202;-83
2023/05/11 06:45:18;;;;;;;18.90;13.80;;;;;;;16.90;100.00;98957.91;4869906;29;20576;-84
2023/05/11 06:48:03;;;;;;;17.20;13.63;;;;;;;17.06;100.00;98960.81;4870986;29;20100;-84
2023/05/11 06:50:47;;;;;;;23.58;15.80;;;;;;;17.10;100.00;98961.97;4872303;29;20529;-80
2023/05/11 06:53:31;;;;;;;22.20;14.95;;;;;;;17.14;100.00;98971.06;4875010;29;20095;-81
2023/05/11 06:56:15;;;;;;;21.20;15.38;;;;;;;17.10;100.00;98969.94;4869443;29;20039;-82
2023/05/11 06:58:59;;;;;;;19.55;14.35;;;;;;;17.16;100.00;98958.38;4876573;29;20063;-83
2023/05/11 07:01:44;;;;;;;19.83;14.80;;;;;;;17.29;100.00;98970.50;4871559;29;20109;-79
2023/05/11 07:04:28;;;;;;;19.95;14.90;;;;;;;17.26;100.00;98963.81;4873285;29;20051;-81
2023/05/11 07:07:13;;;;;;;22.13;15.40;;;;;;;17.31;100.00;98970.28;4865150;29;20044;-82
2023/05/11 07:09:57;;;;;;;22.70;15.90;;;;;;;17.33;100.00;98970.84;4871010;29;20041;-80
2023/05/11 07:12:41;;;;;;;21.73;14.95;;;;;;;17.01;100.00;98966.88;4870393;29;20052;-82
2023/05/11 07:15:26;;;;;;;19.25;14.43;;;;;;;17.46;100.00;98978.47;4872256;29;20086;-84
2023/05/11 07:18:10;;;;;;;19.92;13.98;;;;;;;17.56;100.00;98972.50;4871667;29;20101;-82
2023/05/11 07:20:54;;;;;;;17.80;14.02;;;;;;;17.40;100.00;98971.47;4867992;29;20121;-80
2023/05/11 07:23:37;;;;;;;17.13;13.35;;;;;;;17.14;100.00;98971.06;4871493;29;20188;-77
2023/05/11 07:26:21;;;;;;;18.52;12.10;;;;;;;17.15;100.00;98977.97;4867414;29;20407;-83
2023/05/11 07:29:05;;;;;;;15.15;11.48;;;;;;;17.16;100.00;98984.06;4867198;29;20056;-79
2023/05/11 07:31:50;;;;;;;15.85;11.25;;;;;;;17.01;100.00;98976.66;4864884;29;20051;-77
2023/05/11 07:34:34;;;;;;;15.13;11.15;;;;;;;16.92;100.00;98987.63;4866805;29;20744;-77
2023/05/11 07:37:18;;;;;;;15.65;10.63;;;;;;;16.79;100.00;98987.91;4869766;29;20105;-76
2023/05/11 07:40:03;;;;;;;11.82;10.05;;;;;;;16.76;100.00;98980.44;4864541;29;20129;-75
2023/05/11 07:42:47;;;;;;;16.00;10.23;;;;;;;16.70;100.00;98988.28;4867946;29;20107;-77
2023/05/11 07:45:31;;;;;;;11.85;7.95;;;;;;;16.98;100.00;98980.53;4868942;29;20108;-77
2023/05/11 07:48:16;;;;;;;12.77;8.18;;;;;;;17.04;100.00;98986.78;4866118;29;20096;-76
2023/05/11 07:51:01;;;;;;;9.85;7.32;;;;;;;17.37;100.00;98966.66;4869758;29;20068;-76
2023/05/11 07:53:45;;;;;;;10.63;6.38;;;;;;;17.59;100.00;98971.22;4870510;29;20109;-77
2023/05/11 07:56:29;;;;;;;5.80;5.20;;;;;;;18.02;100.00;98975.06;4869721;29;20052;-77
2023/05/11 07:59:13;;;;;;;8.00;5.90;;;;;;;18.11;100.00;98984.22;4866649;29;20499;-77
2023/05/11 08:01:57;;;;;;;5.68;5.05;;;;;;;18.33;100.00;98991.41;4868298;29;20124;-77
2023/05/11 08:04:42;;;;;;;6.10;5.38;;;;;;;18.64;100.00;98986.44;4869546;29;20471;-76
2023/05/11 08:07:26;;;;;;;6.18;4.88;;;;;;;19.01;100.00;98987.66;4870973;29;20122;-76
2023/05/11 08:10:10;;;;;;;6.43;4.50;;;;;;;19.35;100.00;98992.72;4866522;29;20473;-77
2023/05/11 08:12:55;;;;;;;6.60;4.55;;;;;;;19.61;100.00;99000.09;4865204;29;20375;-76
2023/05/11 08:15:38;;;;;;;6.47;4.20;;;;;;;19.36;100.00;98996.19;4874870;29;20141;-77
2023/05/11 08:18:23;;;;;;;4.80;4.40;;;;;;;19.62;100.00;98999.03;4869796;29;20399;-76
2023/05/11 08:21:07;;;;;;;3.33;3.08;;;;;;;19.51;99.08;98998.97;4862239;29;20125;-77
2023/05/11 08:23:51;;;;;;;5.28;3.50;;;;;;;19.38;98.68;99002.88;4868916;29;20148;-76
2023/05/11 08:26:35;;;;;;;3.90;3.50;;;;;;;19.60;96.20;99001.97;4867157;29;20053;-76
2023/05/11 08:29:19;;;;;;;3.63;3.38;;;;;;;19.77;96.73;99007.16;4865435;29;20085;-75
2023/05/11 08:32:03;;;;;;;5.57;4.18;;;;;;;19.50;96.21;99000.03;4868691;29;20141;-75
2023/05/11 08:34:46;;;;;;;5.57;4.82;;;;;;;19.61;100.00;99005.44;4870155;29;20055;-77
2023/05/11 08:37:30;;;;;;;7.13;6.15;;;;;;;19.51;100.00;99006.97;4869954;29;20138;-77
2023/05/11 08:40:17;;;;;;;7.40;6.70;;;;;;;18.79;100.00;98998.28;4868281;29;20049;-76
2023/05/11 08:43:04;;;;;;;6.80;6.15;;;;;;;19.01;100.00;99005.44;4867372;29;20082;-77
2023/05/11 08:45:55;;;;;;;9.20;6.57;;;;;;;18.97;100.00;99010.44;4866053;29;20047;-76
2023/05/11 08:48:41;;;;;;;8.55;7.63;;;;;;;18.74;100.00;99004.34;4866796;29;20129;-74
2023/05/11 08:51:27;;;;;;;9.40;7.85;;;;;;;18.63;100.00;99005.28;4866715;29;20131;-76
2023/05/11 08:54:11;;;;;;;10.23;8.10;;;;;;;18.51;100.00;99002.78;4867366;29;20052;-75
2023/05/11 08:56:57;;;;;;;9.48;8.57;;;;;;;18.11;100.00;99008.13;4867426;29;20452;-76
2023/05/11 08:59:45;;;;;;;8.85;7.63;;;;;;;17.94;100.00;99007.31;4869264;29;20475;-74
2023/05/11 09:02:29;;;;;;;8.95;8.05;;;;;;;17.78;100.00;99020.34;4870291;29;20120;-77
2023/05/11 09:05:14;;;;;;;5.60;5.10;;;;;;;16.85;100.00;99032.84;4869612;29;20073;-76
2023/05/11 09:08:01;;;;;;;4.80;4.32;;;;;;;16.66;100.00;99029.53;4863948;29;20508;-77
2023/05/11 09:10:45;;;;;;;8.43;4.72;;;;;;;16.44;100.00;99036.50;4866220;29;20067;-76
2023/05/11 09:13:30;;;;;;;13.15;5.88;;;;;;;15.87;100.00;99048.47;4868730;29;20543;-76
2023/05/11 09:16:15;;;;;;;7.82;6.00;;;;;;;15.29;100.00;99043.66;4868052;29;20105;-76
2023/05/11 09:19:02;;;;;;;8.52;5.07;;;;;;;14.94;100.00;99047.78;4874256;29;20057;-76
2023/05/11 09:21:47;;;;;;;9.98;5.05;;;;;;;14.65;100.00;99042.19;4869758;29;20049;-76
2023/05/11 09:24:31;;;;;;;8.73;5.50;;;;;;;14.49;100.00;99045.41;4873275;29;20053;-76
2023/05/11 09:27:15;;;;;;;14.55;6.20;;;;;;;13.83;100.00;99054.56;4872923;29;20103;-77
2023/05/11 09:30:13;;;;;;;6.90;4.97;;;;;;;13.54;100.00;99062.06;4869073;29;20137;-77
2023/05/11 09:32:59;;;;;;;18.30;5.53;;;;;;;13.34;100.00;99042.88;4870498;29;20583;-76
2023/05/11 09:35:44;;;;;;;10.77;6.00;;;;;;;13.40;100.00;99039.41;4872428;29;20056;-76
2023/05/11 09:38:27;;;;;;;9.52;6.45;;;;;;;13.69;100.00;99031.94;4871354;29;20109;-80
2023/05/11 09:41:19;;;;;;;15.15;7.07;;;;;;;13.70;100.00;99038.81;4868628;29;20051;-81
2023/05/11 09:44:04;;;;;;;10.50;7.25;;;;;;;13.94;100.00;99028.47;4868180;29;20044;-83
2023/05/11 09:46:48;;;;;;;11.18;6.55;;;;;;;14.14;100.00;99037.00;4872779;29;20506;-83
2023/05/11 09:49:33;;;;;;;8.48;6.38;;;;;;;14.07;100.00;99041.56;4871071;29;20044;-83
2023/05/11 09:52:19;;;;;;;7.20;5.05;;;;;;;13.99;100.00;99041.84;4868634;29;20043;-82
2023/05/11 09:55:09;;;;;;;8.32;5.88;;;;;;;14.23;100.00;99042.03;4874911;29;20094;-83
2023/05/11 09:57:58;;;;;;;8.23;5.47;;;;;;;14.32;100.00;99056.53;4870408;29;20099;-82
2023/05/11 10:00:50;;;;;;;9.50;6.13;;;;;;;14.43;100.00;99047.91;4868085;29;20049;-83
2023/05/11 10:03:44;;;;;;;8.90;5.60;;;;;;;14.48;100.00;99055.19;4870993;29;20124;-83
2023/05/11 10:06:52;;;;;;;11.85;6.88;;;;;;;14.40;100.00;99063.38;4871586;29;20106;-84
2023/05/11 10:09:37;;;;;;;9.52;6.30;;;;;;;14.46;100.00;99056.41;4871189;29;20100;-83
2023/05/11 10:12:24;;;;;;;10.48;6.43;;;;;;;14.40;100.00;99058.91;4866824;29;20052;-81
2023/05/11 10:15:09;;;;;;;9.50;6.35;;;;;;;14.51;100.00;99054.75;4871398;29;20584;-83
2023/05/11 10:17:55;;;;;;;8.25;5.72;;;;;;;14.46;100.00;99064.34;4868154;29;20144;-83
2023/05/11 10:20:40;;;;;;;9.05;5.75;;;;;;;14.42;100.00;99064.78;4871537;29;20105;-81
2023/05/11 10:23:27;;;;;;;7.78;5.10;;;;;;;14.45;100.00;99060.09;4871824;29;20518;-81
2023/05/11 10:26:12;;;;;;;8.55;5.85;;;;;;;14.43;100.00;99069.03;4865053;29;20089;-83
2023/05/11 10:28:59;;;;;;;8.43;6.10;;;;;;;14.45;100.00;99062.72;4872537;29;20059;-81
2023/05/11 10:31:45;;;;;;;8.38;6.32;;;;;;;14.43;100.00;99066.41;4869282;29;20112;-82
2023/05/11 10:34:30;;;;;;;10.13;6.22;;;;;;;14.53;100.00;99067.72;4871967;29;20518;-81
2023/05/11 10:37:15;;;;;;;10.50;6.20;;;;;;;14.59;100.00;99082.69;4872762;29;20097;-82
2023/05/11 10:39:59;;;;;;;9.23;5.75;;;;;;;14.56;100.00;99083.94;4867399;29;20080;-83
2023/05/11 10:42:59;;;;;;;7.68;5.22;;;;;;;14.75;100.00;99083.97;4869549;29;20048;-82
2023/05/11 10:46:04;;;;;;;6.57;5.05;;;;;;;14.85;100.00;99094.03;4870261;29;20189;-83
2023/05/11 10:48:52;;;;;;;7.35;4.43;;;;;;;14.95;100.00;99099.59;4870547;29;20464;-84
2023/05/11 10:52:04;;;;;;;5.95;4.07;;;;;;;15.14;100.00;99094.28;4871355;29;20424;-83
2023/05/11 10:55:06;;;;;;;6.15;4.85;;;;;;;15.21;100.00;99100.28;4872852;29;20048;-83
2023/05/11 10:58:08;;;;;;;7.82;4.32;;;;;;;15.34;100.00;99103.81;4871228;29;20052;-82
2023/05/11 11:01:22;;;;;;;8.23;4.78;;;;;;;15.36;100.00;99112.31;4866882;29;20132;-82
2023/05/11 11:04:11;;;;;;;6.37;4.50;;;;;;;15.59;100.00;99102.84;4869316;29;20101;-83
2023/05/11 11:07:05;;;;;;;8.60;5.13;;;;;;;15.87;100.00;99106.69;4867071;29;20124;-83
2023/05/11 11:09:51;;;;;;;8.02;5.57;;;;;;;16.09;100.00;99110.44;4871170;29;20407;-84
2023/05/11 11:12:35;;;;;;;9.02;6.10;;;;;;;16.27;100.00;99106.88;4869290;29;20112;-84
2023/05/11 11:15:19;;;;;;;9.63;6.25;;;;;;;16.55;100.00;99104.56;4870838;29;20071;-84
2023/05/11 11:18:21;;;;;;;9.00;6.68;;;;;;;16.75;100.00;99108.69;4869276;29;20082;-83
2023/05/11 11:21:06;;;;;;;9.85;6.03;;;;;;;16.84;100.00;99102.78;4867912;29;20044;-83
2023/05/11 11:23:50;;;;;;;7.85;5.90;;;;;;;16.90;100.00;99095.75;4871962;29;20049;-83
2023/05/11 11:26:49;;;;;;;8.80;5.72;;;;;;;16.68;100.00;99099.00;4868115;29;20100;-83
2023/05/11 11:29:37;;;;;;;7.70;6.03;;;;;;;16.68;100.00;99093.72;4865858;29;20109;-82
2023/05/11 11:32:23;;;;;;;9.07;6.05;;;;;;;16.23;100.00;99092.50;4871822;29;20440;-84
2023/05/11 11:35:38;;;;;;;8.98;5.82;;;;;;;16.02;100.00;99099.16;4870642;29;20510;-82
2023/05/11 11:38:23;;;;;;;7.18;4.80;;;;;;;15.52;100.00;99090.50;4867413;29;20101;-82
2023/05/11 11:41:08;;;;;;;8.20;4.72;;;;;;;15.80;100.00;99086.44;4869582;29;20083;-82
2023/05/11 11:43:54;;;;;;;9.90;3.97;;;;;;;15.68;100.00;99083.78;4871657;29;20104;-83
2023/05/11 11:46:38;;;;;;;5.20;3.00;;;;;;;15.45;100.00;99091.66;4869216;29;20079;-82
2023/05/11 11:49:26;;;;;;;6.72;4.00;;;;;;;15.33;100.00;99083.66;4868367;29;20093;-83
2023/05/11 11:52:30;;;;;;;4.55;3.85;;;;;;;15.69;100.00;99092.50;4870494;29;20136;-83
2023/05/11 11:55:54;;;;;;;7.68;4.80;;;;;;;15.63;100.00;99085.47;4869699;29;20052;-83
2023/05/11 11:58:41;;;;;;;11.95;5.20;;;;;;;15.68;100.00;99093.53;4867282;29;20068;-84
2023/05/11 12:01:29;;;;;;;7.05;5.10;;;;;;;16.20;100.00;99094.78;4868115;29;20435;-82
2023/05/11 12:04:38;;;;;;;8.60;5.35;;;;;;;16.66;100.00;99077.25;4868412;29;20048;-84
2023/05/11 12:07:24;;;;;;;8.75;6.50;;;;;;;17.17;100.00;99081.97;4866095;29;20044;-83
2023/05/11 12:10:11;;;;;;;9.20;7.28;;;;;;;18.37;100.00;99077.53;4871699;29;20143;-84
2023/05/11 12:12:57;;;;;;;12.85;7.95;;;;;;;18.61;100.00;99081.84;4868213;29;20107;-83
2023/05/11 12:15:41;;;;;;;12.15;7.90;;;;;;;18.74;100.00;99078.78;4870525;29;20101;-84
2023/05/11 12:18:25;;;;;;;8.45;6.72;;;;;;;18.80;100.00;99077.00;4870096;29;20051;-83
2023/05/11 12:21:26;;;;;;;8.48;5.60;;;;;;;18.60;100.00;99086.34;4868134;29;20124;-83
2023/05/11 12:24:10;;;;;;;4.90;4.40;;;;;;;19.23;100.00;99088.69;4869992;29;20069;-84
2023/05/11 12:26:56;;;;;;;4.82;3.30;;;;;;;18.75;100.00;99087.59;4868000;29;20136;-83
2023/05/11 12:29:40;;;;;;;4.00;3.30;;;;;;;19.13;100.00;99088.59;4869230;29;20113;-84
2023/05/11 12:32:28;;;;;;;7.00;4.82;;;;;;;19.23;100.00;99088.69;4873956;29;20048;-83
2023/05/11 12:35:12;;;;;;;7.60;5.53;;;;;;;19.79;100.00;99094.78;4866890;29;20072;-84
2023/05/11 12:37:58;;;;;;;4.43;1.95;;;;;;;18.35;100.00;99100.91;4868030;29;20044;-84
2023/05/11 12:40:48;;;;;;;3.60;2.95;;;;;;;17.10;100.00;99103.31;4874379;29;20399;-83
2023/05/11 12:43:32;;;;;;;5.22;3.42;;;;;;;17.63;100.00;99086.47;4867648;29;20507;-84
2023/05/11 12:46:18;;;;;;;3.42;2.63;;;;;;;18.01;100.00;99100.88;4870015;29;20043;-85
2023/05/11 12:49:02;;;;;;;3.15;2.67;;;;;;;18.72;100.00;99106.69;4866808;29;20044;-84
2023/05/11 12:51:58;;;;;;;2.30;2.10;;;;;;;17.46;100.00;99105.81;4865033;29;20400;-84